createdAt,value
2019-02-18T00:00:35.142Z,12.43
2019-02-18T00:03:04.318Z,12.67
2019-02-18T00:05:32.787Z,12.80
2019-02-18T00:08:01.267Z,12.60
2019-02-18T00:10:29.727Z,12.50
2019-02-18T00:12:58.130Z,12.97
2019-02-18T00:15:26.585Z,12.37
2019-02-18T00:17:55.057Z,12.00
2019-02-18T00:20:23.503Z,12.87
2019-02-18T00:22:51.935Z,12.70
2019-02-18T00:25:20.404Z,11.90
2019-02-18T00:27:48.833Z,13.23
2019-02-18T00:30:17.292Z,12.03
2019-02-18T00:32:45.785Z,12.77
2019-02-18T00:35:14.261Z,14.07
2019-02-18T00:37:42.697Z,13.10
2019-02-18T00:40:11.234Z,12.60
2019-02-18T00:42:39.710Z,12.93
2019-02-18T00:45:11.249Z,11.30
2019-02-18T00:47:39.698Z,12.30
2019-02-18T00:50:09.775Z,13.80
2019-02-18T00:52:38.258Z,11.70
2019-02-18T00:55:07.668Z,13.43
2019-02-18T00:57:36.124Z,13.30
2019-02-18T01:00:10.805Z,12.90
2019-02-18T01:02:39.375Z,12.03
2019-02-18T01:05:08.141Z,13.30
2019-02-18T01:07:36.638Z,12.00
2019-02-18T01:10:10.478Z,12.67
2019-02-18T01:12:39.081Z,11.70
2019-02-18T01:15:12.989Z,13.10
2019-02-18T01:17:41.493Z,13.13
2019-02-18T01:20:14.416Z,11.73
2019-02-18T01:22:42.858Z,12.03
2019-02-18T01:25:12.903Z,11.57
2019-02-18T01:27:41.529Z,12.90
2019-02-18T01:30:12.583Z,11.90
2019-02-18T01:32:41.037Z,12.67
2019-02-18T01:35:09.689Z,12.70
2019-02-18T01:37:45.235Z,13.40
2019-02-18T01:40:10.840Z,12.17
2019-02-18T01:42:39.292Z,14.03
2019-02-18T01:45:10.365Z,11.80
2019-02-18T01:47:38.785Z,12.70
2019-02-18T01:50:12.549Z,13.93
2019-02-18T01:52:41.116Z,14.67
2019-02-18T01:55:10.632Z,13.20
2019-02-18T01:57:39.078Z,13.87
2019-02-18T02:00:16.629Z,14.87
2019-02-18T02:02:45.107Z,14.27
2019-02-18T02:05:15.048Z,13.97
2019-02-18T02:07:43.628Z,15.80
2019-02-18T02:10:14.654Z,14.63
2019-02-18T02:12:43.162Z,14.67
2019-02-18T02:15:14.632Z,15.10
2019-02-18T02:17:43.052Z,14.57
2019-02-18T02:20:11.562Z,15.33
2019-02-18T02:22:39.980Z,16.47
2019-02-18T02:25:08.562Z,14.47
2019-02-18T02:27:37.045Z,15.63
2019-02-18T02:30:07.618Z,16.83
2019-02-18T02:32:36.120Z,14.20
2019-02-18T02:35:05.200Z,17.00
2019-02-18T02:37:33.774Z,14.60
2019-02-18T02:40:02.222Z,14.77
2019-02-18T02:42:30.768Z,13.23
2019-02-18T02:44:59.225Z,14.07
2019-02-18T02:47:27.650Z,13.60
2019-02-18T02:49:56.069Z,13.97
2019-02-18T02:52:24.533Z,13.70
2019-02-18T02:54:52.958Z,17.20
2019-02-18T02:57:21.400Z,15.03
2019-02-18T02:59:49.937Z,14.40
2019-02-18T03:02:18.364Z,15.70
2019-02-18T03:04:46.817Z,16.60
2019-02-18T03:07:15.265Z,16.70
2019-02-18T03:09:43.673Z,17.33
2019-02-18T03:12:12.112Z,16.73
2019-02-18T03:14:40.602Z,17.37
2019-02-18T03:17:09.057Z,15.40
2019-02-18T03:19:37.471Z,15.60
2019-02-18T03:22:05.904Z,16.47
2019-02-18T03:24:34.323Z,17.60
2019-02-18T03:27:02.765Z,18.07
2019-02-18T03:29:50.782Z,16.97
2019-02-18T03:32:19.285Z,16.60
2019-02-18T03:34:47.720Z,15.97
2019-02-18T03:37:16.168Z,15.87
2019-02-18T03:39:44.649Z,16.77
2019-02-18T03:42:13.121Z,15.73
2019-02-18T03:44:41.527Z,16.20
2019-02-18T03:47:09.955Z,16.70
2019-02-18T03:49:38.460Z,14.93
2019-02-18T03:52:06.865Z,16.37
2019-02-18T03:54:35.319Z,18.07
2019-02-18T03:57:03.753Z,17.43
2019-02-18T03:59:32.312Z,16.27
2019-02-18T04:02:00.743Z,15.03
2019-02-18T04:04:29.298Z,16.47
2019-02-18T04:06:57.750Z,17.10
2019-02-18T04:09:26.215Z,15.30
2019-02-18T04:11:54.651Z,15.60
2019-02-18T04:14:23.090Z,16.27
2019-02-18T04:16:51.605Z,14.60
2019-02-18T04:19:20.137Z,14.97
2019-02-18T04:21:48.622Z,15.80
2019-02-18T04:24:17.082Z,15.43
2019-02-18T04:26:45.498Z,15.77
2019-02-18T04:29:13.953Z,15.10
2019-02-18T04:31:42.377Z,15.70
2019-02-18T04:34:10.828Z,15.13
2019-02-18T04:36:39.324Z,14.73
2019-02-18T04:39:07.866Z,14.70
2019-02-18T04:41:36.348Z,14.47
2019-02-18T04:44:04.784Z,16.40
2019-02-18T04:46:33.285Z,15.33
2019-02-18T04:49:01.691Z,15.50
2019-02-18T04:51:30.136Z,14.70
2019-02-18T04:53:58.553Z,12.40
2019-02-18T04:56:26.994Z,14.73
2019-02-18T04:58:55.396Z,13.73
2019-02-18T05:01:23.825Z,13.00
2019-02-18T05:03:52.237Z,13.50
2019-02-18T05:06:20.669Z,13.33
2019-02-18T05:08:49.088Z,12.50
2019-02-18T05:11:17.536Z,13.20
2019-02-18T05:13:46.101Z,13.00
2019-02-18T05:16:14.561Z,12.80
2019-02-18T05:18:42.984Z,14.37
2019-02-18T05:21:11.655Z,14.43
2019-02-18T05:23:40.088Z,13.10
2019-02-18T05:26:08.512Z,14.10
2019-02-18T05:28:36.951Z,13.47
2019-02-18T05:31:05.472Z,14.30
2019-02-18T05:33:33.915Z,14.60
2019-02-18T05:36:02.361Z,13.77
2019-02-18T05:38:30.765Z,13.80
2019-02-18T05:40:59.202Z,12.90
2019-02-18T05:43:27.646Z,13.00
2019-02-18T05:45:56.065Z,13.67
2019-02-18T05:48:24.506Z,14.17
2019-02-18T05:50:52.905Z,13.43
2019-02-18T05:53:21.354Z,12.53
2019-02-18T05:55:49.765Z,13.93
2019-02-18T05:58:18.198Z,14.87
2019-02-18T06:00:46.627Z,15.40
2019-02-18T06:03:15.079Z,13.83
2019-02-18T06:05:43.514Z,15.07
2019-02-18T06:08:11.958Z,13.87
2019-02-18T06:10:40.432Z,14.47
2019-02-18T06:13:08.917Z,14.80
2019-02-18T06:15:37.352Z,14.17
2019-02-18T06:18:05.880Z,13.77
2019-02-18T06:20:34.297Z,14.10
2019-02-18T06:23:02.745Z,15.23
2019-02-18T06:25:31.165Z,14.10
2019-02-18T06:27:59.601Z,13.87
2019-02-18T06:30:28.021Z,15.37
2019-02-18T06:32:56.513Z,13.50
2019-02-18T06:35:24.932Z,14.87
2019-02-18T06:37:53.362Z,15.83
2019-02-18T06:40:21.819Z,16.20
2019-02-18T06:42:50.222Z,13.40
2019-02-18T06:45:36.581Z,14.57
2019-02-18T06:48:15.679Z,14.10
2019-02-18T06:50:44.133Z,13.53
2019-02-18T06:53:12.625Z,14.60
2019-02-18T06:55:41.098Z,13.97
2019-02-18T06:58:16.843Z,13.77
2019-02-18T07:00:52.898Z,14.00
2019-02-18T07:03:22.973Z,12.70
2019-02-18T07:06:04.939Z,13.50
2019-02-18T07:08:40.946Z,13.53
2019-02-18T07:11:11.039Z,14.23
2019-02-18T07:13:39.465Z,13.70
2019-02-18T07:16:07.893Z,14.47
2019-02-18T07:18:36.320Z,14.40
2019-02-18T07:21:04.758Z,13.77
2019-02-18T07:23:33.190Z,13.37
2019-02-18T07:26:01.692Z,13.40
2019-02-18T07:28:30.407Z,13.47
2019-02-18T07:31:00.442Z,14.80
2019-02-18T07:33:28.852Z,12.83
2019-02-18T07:35:57.308Z,12.67
2019-02-18T07:38:25.763Z,13.20
2019-02-18T07:40:54.181Z,13.53
2019-02-18T07:43:23.242Z,14.37
2019-02-18T07:45:51.717Z,14.37
2019-02-18T07:48:20.141Z,14.67
2019-02-18T07:50:48.581Z,15.03
2019-02-18T07:53:17.036Z,13.47
2019-02-18T07:55:45.504Z,13.47
2019-02-18T07:58:13.930Z,14.33
2019-02-18T08:00:42.459Z,12.80
2019-02-18T08:03:10.893Z,12.70
2019-02-18T08:05:39.314Z,12.90
2019-02-18T08:08:07.750Z,12.47
2019-02-18T08:10:36.199Z,12.43
2019-02-18T08:13:04.620Z,12.13
2019-02-18T08:15:33.040Z,13.17
2019-02-18T08:18:01.508Z,12.10
2019-02-18T08:20:30.009Z,12.80
2019-02-18T08:22:58.446Z,12.87
2019-02-18T08:25:26.869Z,10.67
2019-02-18T08:27:55.302Z,12.60
2019-02-18T08:30:23.720Z,12.70
2019-02-18T08:32:52.170Z,12.13
2019-02-18T08:35:20.725Z,12.23
2019-02-18T08:37:49.153Z,13.37
2019-02-18T08:40:22.447Z,12.57
2019-02-18T08:42:47.752Z,12.10
2019-02-18T08:45:16.197Z,12.90
2019-02-18T08:47:44.662Z,11.90
2019-02-18T08:50:13.234Z,12.10
2019-02-18T08:52:41.683Z,12.67
2019-02-18T08:55:12.156Z,11.23
2019-02-18T08:57:40.552Z,11.60
2019-02-18T09:00:14.547Z,11.30
2019-02-18T09:02:42.984Z,11.93
2019-02-18T09:05:11.657Z,13.30
2019-02-18T09:07:40.149Z,11.57
2019-02-18T09:10:13.164Z,10.90
2019-02-18T09:12:41.592Z,12.07
2019-02-18T09:15:11.061Z,11.47
2019-02-18T09:17:39.493Z,11.60
2019-02-18T09:20:09.270Z,11.47
2019-02-18T09:22:57.388Z,11.73
2019-02-18T09:25:30.505Z,11.37
2019-02-18T09:27:58.937Z,10.27
2019-02-18T09:30:29.010Z,9.27
2019-02-18T09:32:57.433Z,10.17
2019-02-18T09:35:25.885Z,9.37
2019-02-18T09:37:54.302Z,10.33
2019-02-18T09:40:22.804Z,9.83
2019-02-18T09:42:51.233Z,10.67
2019-02-18T09:45:19.666Z,10.40
2019-02-18T09:47:48.082Z,11.97
2019-02-18T09:50:16.530Z,10.33
2019-02-18T09:52:44.946Z,10.27
2019-02-18T09:55:13.405Z,10.40
2019-02-18T09:57:41.889Z,10.73
2019-02-18T10:00:13.319Z,11.30
2019-02-18T10:02:41.760Z,9.67
2019-02-18T10:05:10.346Z,9.60
2019-02-18T10:07:38.758Z,9.97
2019-02-18T10:10:09.774Z,8.73
2019-02-18T10:12:38.213Z,9.13
2019-02-18T10:15:09.480Z,10.13
2019-02-18T10:17:37.921Z,8.53
2019-02-18T10:20:09.783Z,9.53
2019-02-18T10:22:38.283Z,9.13
2019-02-18T10:25:09.541Z,8.03
2019-02-18T10:27:38.044Z,8.33
2019-02-18T10:30:10.056Z,9.17
2019-02-18T10:32:38.501Z,6.77
2019-02-18T10:35:10.114Z,8.97
2019-02-18T10:37:38.565Z,9.77
2019-02-18T10:40:08.730Z,11.07
2019-02-18T10:42:37.261Z,10.20
2019-02-18T10:45:08.922Z,10.40
2019-02-18T10:47:37.438Z,9.50
2019-02-18T10:50:07.609Z,10.47
2019-02-18T10:52:36.054Z,9.17
2019-02-18T10:55:05.613Z,8.47
2019-02-18T10:57:34.431Z,10.20
2019-02-18T11:00:03.332Z,10.17
2019-02-18T11:02:31.799Z,10.53
2019-02-18T11:05:00.360Z,10.37
2019-02-18T11:07:28.887Z,11.00
2019-02-18T11:09:57.326Z,9.70
2019-02-18T11:12:25.736Z,9.60
2019-02-18T11:14:54.176Z,10.77
2019-02-18T11:17:22.626Z,9.30
2019-02-18T11:19:51.079Z,10.27
2019-02-18T11:22:19.773Z,9.77
2019-02-18T11:24:48.220Z,10.20
2019-02-18T11:27:16.645Z,9.97
2019-02-18T11:29:45.089Z,8.83
2019-02-18T11:32:13.612Z,9.60
2019-02-18T11:34:42.097Z,8.70
2019-02-18T11:37:10.900Z,8.37
2019-02-18T11:39:39.906Z,8.03
2019-02-18T11:42:08.336Z,9.13
2019-02-18T11:44:36.768Z,8.70
2019-02-18T11:47:05.273Z,10.10
2019-02-18T11:49:33.714Z,9.87
2019-02-18T11:52:02.340Z,9.23
2019-02-18T11:54:30.801Z,9.27
2019-02-18T11:56:59.220Z,10.40
2019-02-18T11:59:27.665Z,9.00
2019-02-18T12:01:56.185Z,10.00
2019-02-18T12:04:24.606Z,8.47
2019-02-18T12:06:53.353Z,9.03
2019-02-18T12:09:21.778Z,9.20
2019-02-18T12:11:50.300Z,9.80
2019-02-18T12:14:18.799Z,9.60
2019-02-18T12:16:47.239Z,8.87
2019-02-18T12:19:15.656Z,8.80
2019-02-18T12:21:44.101Z,8.57
2019-02-18T12:24:12.810Z,8.70
2019-02-18T12:26:41.251Z,8.30
2019-02-18T12:29:09.665Z,9.10
2019-02-18T12:31:38.101Z,9.13
2019-02-18T12:34:06.546Z,7.80
2019-02-18T12:36:35.004Z,8.77
2019-02-18T12:39:06.105Z,8.20
2019-02-18T12:41:34.548Z,9.20
2019-02-18T12:44:02.972Z,9.27
2019-02-18T12:46:31.518Z,9.87
2019-02-18T12:48:59.953Z,9.27
2019-02-18T12:51:28.472Z,8.80
2019-02-18T12:54:04.748Z,8.80
2019-02-18T12:56:27.146Z,7.93
2019-02-18T12:58:55.599Z,7.90
2019-02-18T13:01:24.094Z,8.60
2019-02-18T13:03:52.613Z,9.30
2019-02-18T13:06:21.113Z,8.50
2019-02-18T13:08:49.617Z,8.20
2019-02-18T13:11:18.058Z,9.43
2019-02-18T13:13:46.496Z,7.70
2019-02-18T13:16:15.126Z,9.53
2019-02-18T13:18:43.633Z,9.10
2019-02-18T13:21:12.150Z,9.00
2019-02-18T13:23:40.656Z,10.33
2019-02-18T13:26:09.063Z,9.43
2019-02-18T13:28:37.508Z,8.80
2019-02-18T13:31:05.960Z,8.17
2019-02-18T13:33:34.574Z,8.70
2019-02-18T13:36:03.314Z,8.70
2019-02-18T13:38:31.825Z,9.10
2019-02-18T13:41:00.296Z,8.70
2019-02-18T13:43:28.777Z,9.50
2019-02-18T13:45:57.192Z,9.20
2019-02-18T13:48:25.625Z,8.70
2019-02-18T13:50:54.053Z,9.30
2019-02-18T13:53:22.586Z,9.33
2019-02-18T13:55:51.018Z,9.13
2019-02-18T13:58:19.438Z,8.73
2019-02-18T14:00:48.182Z,9.80
2019-02-18T14:03:16.629Z,9.40
2019-02-18T14:05:45.350Z,10.10
2019-02-18T14:08:13.774Z,9.43
2019-02-18T14:10:42.253Z,9.33
2019-02-18T14:13:10.692Z,8.90
2019-02-18T14:15:39.151Z,7.80
2019-02-18T14:18:07.733Z,9.57
2019-02-18T14:20:36.679Z,8.93
2019-02-18T14:23:05.244Z,8.90
2019-02-18T14:25:33.684Z,8.77
2019-02-18T14:28:02.085Z,8.33
2019-02-18T14:30:30.626Z,8.30
2019-02-18T14:32:59.048Z,8.37
2019-02-18T14:35:27.590Z,10.00
2019-02-18T14:37:56.110Z,8.63
2019-02-18T14:40:25.657Z,8.57
2019-02-18T14:42:54.116Z,9.30
2019-02-18T14:45:22.610Z,8.07
2019-02-18T14:47:51.134Z,15.80
2019-02-18T14:50:19.617Z,14.50
2019-02-18T14:52:48.592Z,9.50
2019-02-18T14:55:17.164Z,10.07
2019-02-18T14:57:45.693Z,9.73
2019-02-18T15:00:21.524Z,10.00
2019-02-18T15:02:51.461Z,9.30
2019-02-18T15:05:19.984Z,8.20
2019-02-18T15:07:48.420Z,8.13
2019-02-18T15:10:16.929Z,9.00
2019-02-18T15:12:45.469Z,8.60
2019-02-18T15:15:14.287Z,8.20
2019-02-18T15:17:42.876Z,8.70
2019-02-18T15:20:11.651Z,8.17
2019-02-18T15:22:40.504Z,8.57
2019-02-18T15:25:10.181Z,9.00
2019-02-18T15:27:38.696Z,8.47
2019-02-18T15:30:13.254Z,7.90
2019-02-18T15:32:41.776Z,9.90
2019-02-18T15:35:10.270Z,8.70
2019-02-18T15:37:38.707Z,8.00
2019-02-18T15:40:09.878Z,8.13
2019-02-18T15:42:42.173Z,8.43
2019-02-18T15:45:09.404Z,8.67
2019-02-18T15:47:37.962Z,8.90
2019-02-18T15:50:09.851Z,7.90
2019-02-18T15:52:39.252Z,7.73
2019-02-18T15:55:08.566Z,8.00
2019-02-18T15:57:37.080Z,8.37
2019-02-18T16:00:23.686Z,8.53
2019-02-18T16:02:52.261Z,7.80
2019-02-18T16:05:20.749Z,8.80
2019-02-18T16:07:49.248Z,9.13
2019-02-18T16:10:17.837Z,7.97
2019-02-18T16:12:50.733Z,7.30
2019-02-18T16:15:16.521Z,8.63
2019-02-18T16:17:45.216Z,8.30
2019-02-18T16:20:14.336Z,8.97
2019-02-18T16:22:42.831Z,9.07
2019-02-18T16:25:20.457Z,8.60
2019-02-18T16:27:49.032Z,9.10
2019-02-18T16:30:19.211Z,9.80
2019-02-18T16:32:47.676Z,9.30
2019-02-18T16:35:16.185Z,47.37
2019-02-18T16:37:44.659Z,16.63
2019-02-18T16:40:15.682Z,13.13
2019-02-18T16:42:44.255Z,11.93
2019-02-18T16:45:14.328Z,10.33
2019-02-18T16:47:42.829Z,11.00
2019-02-18T16:50:13.088Z,10.33
2019-02-18T16:52:41.595Z,11.57
2019-02-18T16:55:14.389Z,11.70
2019-02-18T16:57:42.887Z,11.60
2019-02-18T17:00:19.945Z,11.10
2019-02-18T17:02:48.441Z,11.90
2019-02-18T17:05:17.028Z,11.73
2019-02-18T17:07:45.513Z,11.83
2019-02-18T17:10:14.410Z,12.53
2019-02-18T17:12:43.047Z,11.43
2019-02-18T17:15:12.786Z,11.57
2019-02-18T17:17:41.503Z,12.83
2019-02-18T17:20:10.128Z,11.10
2019-02-18T17:22:38.748Z,18.27
2019-02-18T17:25:10.252Z,15.40
2019-02-18T17:27:38.855Z,16.20
2019-02-18T17:30:12.945Z,18.73
2019-02-18T17:32:41.407Z,16.57
2019-02-18T17:35:14.313Z,14.93
2019-02-18T17:37:42.835Z,17.60
2019-02-18T17:40:12.531Z,14.90
2019-02-18T17:42:41.387Z,15.03
2019-02-18T17:45:12.198Z,21.17
2019-02-18T17:47:40.687Z,33.10
2019-02-18T17:50:11.712Z,19.20
2019-02-18T17:52:40.276Z,23.00
2019-02-18T17:55:11.252Z,21.97
2019-02-18T17:57:40.108Z,34.73
2019-02-18T18:00:14.548Z,43.17
2019-02-18T18:02:43.177Z,41.30
2019-02-18T18:05:11.775Z,36.20
2019-02-18T18:07:40.327Z,29.40
2019-02-18T18:10:11.210Z,17.77
2019-02-18T18:12:40.205Z,19.80
2019-02-18T18:15:11.303Z,16.00
2019-02-18T18:17:39.879Z,19.47
2019-02-18T18:20:12.966Z,14.33
2019-02-18T18:22:41.491Z,14.80
2019-02-18T18:25:11.869Z,14.57
2019-02-18T18:27:40.486Z,14.97
2019-02-18T18:30:14.635Z,15.57
2019-02-18T18:32:45.097Z,15.77
2019-02-18T18:35:13.675Z,16.63
2019-02-18T18:37:42.274Z,19.10
2019-02-18T18:40:15.806Z,15.40
2019-02-18T18:42:44.360Z,20.33
2019-02-18T18:45:15.711Z,25.80
2019-02-18T18:47:44.413Z,32.80
2019-02-18T18:50:20.527Z,31.57
2019-02-18T18:52:49.019Z,27.67
2019-02-18T18:55:17.785Z,29.40
2019-02-18T18:57:46.306Z,26.17
2019-02-18T19:00:21.629Z,25.10
2019-02-18T19:02:50.177Z,23.87
2019-02-18T19:05:19.173Z,28.27
2019-02-18T19:07:47.621Z,22.53
2019-02-18T19:10:16.553Z,20.30
2019-02-18T19:12:45.163Z,18.73
2019-02-18T19:15:15.121Z,28.60
2019-02-18T19:17:43.667Z,40.93
2019-02-18T19:20:12.576Z,37.47
2019-02-18T19:22:41.178Z,28.00
2019-02-18T19:25:11.454Z,21.97
2019-02-18T19:27:40.073Z,22.60
2019-02-18T19:30:20.689Z,32.60
2019-02-18T19:32:49.553Z,25.23
2019-02-18T19:35:18.114Z,19.60
2019-02-18T19:37:46.719Z,22.30
2019-02-18T19:40:15.256Z,37.37
2019-02-18T19:42:43.850Z,40.63
2019-02-18T19:45:15.250Z,32.17
2019-02-18T19:47:44.104Z,31.83
2019-02-18T19:50:12.765Z,31.43
2019-02-18T19:52:41.188Z,24.93
2019-02-18T19:55:11.202Z,33.97
2019-02-18T19:57:39.748Z,39.60
2019-02-18T20:00:13.977Z,36.93
2019-02-18T20:02:42.518Z,22.07
2019-02-18T20:05:11.122Z,19.77
2019-02-18T20:07:39.745Z,19.73
2019-02-18T20:10:10.468Z,20.37
2019-02-18T20:12:39.130Z,24.20
2019-02-18T20:15:10.522Z,25.20
2019-02-18T20:17:38.989Z,21.07
2019-02-18T20:20:10.481Z,21.50
2019-02-18T20:22:38.961Z,18.03
2019-02-18T20:25:08.782Z,20.83
2019-02-18T20:27:37.474Z,20.67
2019-02-18T20:30:09.800Z,21.33
2019-02-18T20:32:39.786Z,21.40
2019-02-18T20:35:11.654Z,19.83
2019-02-18T20:37:39.800Z,28.87
2019-02-18T20:40:09.687Z,21.33
2019-02-18T20:42:38.507Z,20.67
2019-02-18T20:45:12.002Z,19.30
2019-02-18T20:47:40.464Z,19.27
2019-02-18T20:50:13.936Z,19.67
2019-02-18T20:52:42.475Z,19.73
2019-02-18T20:55:13.532Z,18.97
2019-02-18T20:57:42.161Z,18.13
2019-02-18T21:00:21.455Z,21.47
2019-02-18T21:02:50.118Z,29.03
2019-02-18T21:05:18.758Z,30.23
2019-02-18T21:07:47.267Z,22.23
2019-02-18T21:10:19.974Z,18.77
2019-02-18T21:12:48.474Z,20.00
2019-02-18T21:15:17.053Z,37.90
2019-02-18T21:17:45.611Z,36.90
2019-02-18T21:20:14.730Z,24.30
2019-02-18T21:22:43.281Z,32.33
2019-02-18T21:25:11.965Z,22.63
2019-02-18T21:27:40.432Z,18.40
2019-02-18T21:30:11.819Z,19.97
2019-02-18T21:32:40.322Z,19.60
2019-02-18T21:35:08.925Z,17.50
2019-02-18T21:37:37.453Z,32.50
2019-02-18T21:40:08.601Z,52.20
2019-02-18T21:42:37.197Z,54.00
2019-02-18T21:45:08.623Z,39.73
2019-02-18T21:47:37.239Z,34.30
2019-02-18T21:50:07.665Z,27.40
2019-02-18T21:52:36.480Z,27.67
2019-02-18T21:55:06.073Z,26.90
2019-02-18T21:57:34.755Z,26.70
2019-02-18T22:00:05.495Z,25.23
2019-02-18T22:02:34.029Z,23.40
2019-02-18T22:05:02.617Z,20.10
2019-02-18T22:07:31.460Z,20.43
2019-02-18T22:09:59.904Z,22.20
2019-02-18T22:12:28.415Z,20.27
2019-02-18T22:14:56.842Z,20.50
2019-02-18T22:17:25.322Z,21.07
2019-02-18T22:19:53.751Z,19.80
2019-02-18T22:22:22.211Z,21.53
2019-02-18T22:24:51.009Z,19.63
2019-02-18T22:27:19.499Z,21.50
2019-02-18T22:29:47.937Z,20.93
2019-02-18T22:32:16.395Z,21.67
2019-02-18T22:34:44.892Z,19.80
2019-02-18T22:37:13.368Z,18.13
2019-02-18T22:39:41.805Z,19.90
2019-02-18T22:42:10.623Z,20.23
2019-02-18T22:44:41.962Z,18.83
2019-02-18T22:47:09.251Z,17.20
2019-02-18T22:49:37.711Z,19.30
2019-02-18T22:52:06.164Z,19.40
2019-02-18T22:54:34.629Z,20.17
2019-02-18T22:57:03.077Z,20.73
2019-02-18T22:59:31.704Z,20.37
2019-02-18T23:02:00.210Z,18.20
2019-02-18T23:04:28.738Z,19.30
2019-02-18T23:06:57.292Z,18.87
2019-02-18T23:09:25.733Z,19.27
2019-02-18T23:11:54.176Z,17.93
2019-02-18T23:14:22.633Z,18.80
2019-02-18T23:16:51.045Z,18.53
2019-02-18T23:19:19.655Z,18.87
2019-02-18T23:21:48.138Z,18.37
2019-02-18T23:24:16.694Z,18.40
2019-02-18T23:26:45.189Z,18.60
2019-02-18T23:29:13.708Z,19.20
2019-02-18T23:31:42.418Z,20.07
2019-02-18T23:34:10.901Z,18.43
2019-02-18T23:36:39.353Z,18.77
2019-02-18T23:39:08.447Z,19.07
2019-02-18T23:41:36.893Z,19.37
2019-02-18T23:44:05.316Z,19.20
2019-02-18T23:46:33.757Z,18.23
2019-02-18T23:49:02.195Z,17.87
2019-02-18T23:51:30.637Z,18.97
2019-02-18T23:53:59.062Z,18.63
2019-02-18T23:56:27.517Z,17.93
2019-02-18T23:58:56.034Z,16.73
